createdAt,value
2018-03-09T00:02:04.784Z,6.17
2018-03-09T00:04:40.126Z,8.25
2018-03-09T00:07:15.028Z,4.90
2018-03-09T00:09:49.863Z,5.27
2018-03-09T00:12:25.303Z,5.43
2018-03-09T00:15:00.380Z,7.90
2018-03-09T00:17:35.357Z,4.47
2018-03-09T00:20:10.628Z,6.37
2018-03-09T00:22:45.490Z,10.30
2018-03-09T00:25:20.791Z,5.43
2018-03-09T00:27:55.503Z,7.57
2018-03-09T00:30:30.467Z,8.10
2018-03-09T00:33:05.431Z,6.60
2018-03-09T00:35:40.411Z,8.67
2018-03-09T00:38:15.632Z,8.10
2018-03-09T00:40:50.639Z,6.17
2018-03-09T00:43:25.673Z,13.03
2018-03-09T00:46:00.599Z,8.20
2018-03-09T00:48:35.828Z,3.33
2018-03-09T00:51:17.829Z,7.40
2018-03-09T00:53:52.756Z,9.40
2018-03-09T00:56:28.269Z,7.10
2018-03-09T00:59:03.423Z,5.20
2018-03-09T01:01:38.543Z,7.40
2018-03-09T01:04:13.165Z,8.63
2018-03-09T01:06:48.475Z,10.02
2018-03-09T01:09:23.802Z,5.43
2018-03-09T01:11:58.626Z,7.73
2018-03-09T01:14:33.530Z,10.30
2018-03-09T01:17:08.654Z,9.30
2018-03-09T01:19:43.480Z,8.63
2018-03-09T01:22:18.499Z,6.77
2018-03-09T01:24:53.594Z,5.27
2018-03-09T01:27:28.586Z,5.43
2018-03-09T01:30:03.331Z,5.97
2018-03-09T01:32:38.551Z,9.57
2018-03-09T01:35:13.666Z,4.68
2018-03-09T01:37:48.514Z,12.43
2018-03-09T01:40:23.830Z,4.23
2018-03-09T01:42:58.634Z,6.60
2018-03-09T01:45:33.639Z,5.90
2018-03-09T01:48:08.639Z,4.97
2018-03-09T01:50:43.626Z,8.97
2018-03-09T01:53:18.983Z,6.15
2018-03-09T01:55:53.819Z,6.77
2018-03-09T01:58:28.960Z,2.50
2018-03-09T02:01:04.592Z,13.48
2018-03-09T02:03:39.858Z,5.53
2018-03-09T02:06:14.662Z,5.40
2018-03-09T02:08:49.500Z,6.53
2018-03-09T02:11:24.046Z,9.63
2018-03-09T02:13:58.639Z,8.60
2018-03-09T02:16:33.757Z,3.87
2018-03-09T02:19:08.827Z,9.93
2018-03-09T02:21:43.642Z,7.95
2018-03-09T02:24:18.726Z,10.50
2018-03-09T02:26:53.723Z,8.20
2018-03-09T02:29:28.716Z,6.77
2018-03-09T02:32:03.780Z,13.10
2018-03-09T02:34:38.719Z,8.77
2018-03-09T02:37:13.699Z,9.32
2018-03-09T02:39:48.796Z,5.10
2018-03-09T02:42:23.806Z,9.98
2018-03-09T02:44:58.760Z,5.93
2018-03-09T02:47:33.987Z,7.30
2018-03-09T02:50:08.689Z,13.20
2018-03-09T02:52:43.710Z,9.73
2018-03-09T02:55:18.835Z,8.70
2018-03-09T02:57:53.747Z,10.88
2018-03-09T03:00:28.843Z,5.33
2018-03-09T03:03:03.699Z,4.47
2018-03-09T03:05:38.941Z,10.23
2018-03-09T03:08:13.784Z,6.37
2018-03-09T03:10:49.022Z,5.40
2018-03-09T03:13:24.433Z,7.70
2018-03-09T03:15:59.952Z,11.23
2018-03-09T03:18:34.924Z,5.33
2018-03-09T03:21:10.194Z,11.03
2018-03-09T03:23:45.156Z,7.07
2018-03-09T03:26:20.098Z,14.30
2018-03-09T03:28:55.135Z,17.03
2018-03-09T03:31:30.224Z,13.10
2018-03-09T03:34:05.450Z,12.67
2018-03-09T03:36:40.879Z,10.38
2018-03-09T03:39:16.025Z,9.85
2018-03-09T03:41:50.955Z,10.50
2018-03-09T03:44:25.630Z,7.13
2018-03-09T03:47:00.899Z,5.27
2018-03-09T03:49:35.871Z,23.30
2018-03-09T03:52:10.906Z,4.25
2018-03-09T03:54:45.428Z,10.53
2018-03-09T03:57:20.279Z,7.73
2018-03-09T03:59:55.027Z,6.37
2018-03-09T04:02:29.955Z,10.10
2018-03-09T04:05:05.116Z,7.20
2018-03-09T04:07:39.954Z,13.30
2018-03-09T04:10:15.310Z,12.37
2018-03-09T04:12:50.119Z,11.07
2018-03-09T04:15:25.251Z,3.73
2018-03-09T04:18:00.299Z,11.53
2018-03-09T04:20:35.506Z,6.70
2018-03-09T04:23:10.943Z,11.53
2018-03-09T04:25:45.966Z,7.77
2018-03-09T04:28:21.390Z,10.30
2018-03-09T04:30:56.120Z,9.03
2018-03-09T04:33:31.299Z,13.77
2018-03-09T04:36:06.048Z,7.17
2018-03-09T04:38:41.036Z,10.03
2018-03-09T04:41:15.458Z,7.67
2018-03-09T04:43:49.999Z,11.20
2018-03-09T04:46:25.146Z,9.37
2018-03-09T04:48:59.640Z,10.73
2018-03-09T04:51:34.959Z,16.00
2018-03-09T04:54:10.093Z,8.10
2018-03-09T04:56:44.907Z,6.70
2018-03-09T04:59:19.575Z,7.60
2018-03-09T05:01:54.510Z,8.50
2018-03-09T05:04:29.533Z,13.03
2018-03-09T05:07:05.003Z,9.65
2018-03-09T05:09:39.639Z,11.73
2018-03-09T05:12:15.054Z,7.90
2018-03-09T05:14:49.934Z,14.30
2018-03-09T05:17:25.095Z,16.77
2018-03-09T05:20:00.430Z,8.80
2018-03-09T05:22:35.323Z,10.67
2018-03-09T05:25:10.369Z,14.37
2018-03-09T05:27:45.420Z,17.80
2018-03-09T05:30:21.064Z,11.90
2018-03-09T05:32:56.161Z,13.63
2018-03-09T05:35:31.143Z,11.23
2018-03-09T05:38:06.291Z,10.03
2018-03-09T05:40:40.587Z,17.30
2018-03-09T05:43:15.411Z,9.40
2018-03-09T05:45:50.631Z,8.20
2018-03-09T05:48:25.666Z,16.90
2018-03-09T05:51:00.204Z,10.97
2018-03-09T05:53:35.330Z,13.53
2018-03-09T05:56:10.117Z,12.43
2018-03-09T05:58:44.979Z,12.50
2018-03-09T06:01:19.636Z,8.07
2018-03-09T06:03:54.501Z,11.60
2018-03-09T06:06:29.766Z,12.33
2018-03-09T06:09:04.682Z,12.63
2018-03-09T06:11:40.067Z,8.43
2018-03-09T06:14:15.222Z,17.93
2018-03-09T06:16:50.249Z,14.25
2018-03-09T06:19:25.346Z,6.90
2018-03-09T06:22:00.390Z,18.87
2018-03-09T06:24:35.058Z,14.00
2018-03-09T06:27:10.568Z,16.73
2018-03-09T06:29:45.305Z,12.13
2018-03-09T06:32:20.287Z,16.50
2018-03-09T06:34:55.610Z,16.53
2018-03-09T06:37:31.171Z,14.48
2018-03-09T06:40:06.434Z,18.50
2018-03-09T06:42:41.735Z,16.57
2018-03-09T06:45:16.814Z,15.87
2018-03-09T06:47:51.905Z,20.73
2018-03-09T06:50:27.240Z,18.02
2018-03-09T06:53:02.481Z,31.00
2018-03-09T06:55:38.226Z,25.03
2018-03-09T06:58:13.476Z,15.80
2018-03-09T07:00:48.059Z,19.67
2018-03-09T07:03:23.575Z,25.65
2018-03-09T07:05:58.724Z,22.43
2018-03-09T07:08:34.174Z,25.58
2018-03-09T07:11:08.841Z,20.27
2018-03-09T07:13:43.671Z,21.63
2018-03-09T07:16:18.626Z,27.60
2018-03-09T07:18:53.555Z,27.70
2018-03-09T07:21:27.912Z,26.30
2018-03-09T07:24:03.347Z,32.13
2018-03-09T07:26:38.286Z,31.60
2018-03-09T07:29:13.346Z,37.60
2018-03-09T07:31:48.393Z,24.03
2018-03-09T07:34:23.649Z,27.67
2018-03-09T07:36:58.610Z,24.23
2018-03-09T07:39:33.660Z,23.97
2018-03-09T07:42:08.977Z,21.73
2018-03-09T07:44:43.965Z,32.40
2018-03-09T07:47:18.915Z,23.02
2018-03-09T07:49:54.001Z,26.33
2018-03-09T07:52:29.760Z,13.50
2018-03-09T07:55:04.466Z,28.47
2018-03-09T07:57:39.811Z,28.97
2018-03-09T08:00:15.012Z,34.90
2018-03-09T08:02:52.334Z,37.50
2018-03-09T08:05:27.569Z,24.10
2018-03-09T08:08:02.854Z,31.73
2018-03-09T08:10:38.479Z,41.08
2018-03-09T08:13:13.164Z,35.08
2018-03-09T08:15:47.679Z,23.27
2018-03-09T08:18:22.976Z,27.93
2018-03-09T08:20:57.621Z,28.47
2018-03-09T08:23:33.425Z,24.73
2018-03-09T08:26:08.959Z,21.25
2018-03-09T08:28:43.893Z,26.13
2018-03-09T08:31:19.203Z,20.62
2018-03-09T08:33:53.794Z,26.63
2018-03-09T08:36:28.828Z,25.70
2018-03-09T08:39:03.541Z,31.23
2018-03-09T08:41:38.792Z,25.33
2018-03-09T08:46:54.027Z,24.57
2018-03-09T08:49:29.039Z,20.50
2018-03-09T08:52:04.183Z,22.70
2018-03-09T08:54:39.193Z,20.43
2018-03-09T08:57:14.507Z,22.13
2018-03-09T08:59:49.695Z,29.00
2018-03-09T09:02:24.952Z,28.90
2018-03-09T09:05:00.059Z,15.47
2018-03-09T09:07:35.567Z,25.88
2018-03-09T09:10:10.947Z,25.50
2018-03-09T09:12:46.083Z,21.90
2018-03-09T09:15:21.187Z,31.87
2018-03-09T09:17:56.768Z,27.60
2018-03-09T09:20:31.977Z,26.03
2018-03-09T09:23:07.196Z,18.40
2018-03-09T09:25:42.685Z,25.17
2018-03-09T09:28:17.990Z,28.90
2018-03-09T09:30:52.820Z,24.93
2018-03-09T09:33:27.863Z,29.37
2018-03-09T09:36:04.072Z,30.13
2018-03-09T09:38:38.815Z,24.73
2018-03-09T09:41:14.036Z,15.63
2018-03-09T09:43:49.046Z,22.63
2018-03-09T09:46:24.071Z,21.57
2018-03-09T09:48:59.190Z,18.67
2018-03-09T09:51:34.983Z,14.30
2018-03-09T09:54:10.231Z,18.43
2018-03-09T09:56:45.150Z,27.87
2018-03-09T09:59:19.832Z,27.83
2018-03-09T10:01:54.954Z,29.30
2018-03-09T10:04:30.162Z,26.17
2018-03-09T10:07:05.112Z,32.03
2018-03-09T10:09:40.179Z,24.23
2018-03-09T10:12:15.699Z,27.17
2018-03-09T10:14:50.983Z,23.13
2018-03-09T10:17:25.884Z,32.23
2018-03-09T10:20:00.836Z,17.77
2018-03-09T10:22:36.068Z,26.70
2018-03-09T10:25:11.076Z,27.77
2018-03-09T10:27:46.114Z,26.50
2018-03-09T10:30:21.244Z,26.87
2018-03-09T10:32:57.536Z,30.77
2018-03-09T10:35:32.902Z,29.87
2018-03-09T10:38:09.227Z,27.13
2018-03-09T10:40:44.340Z,24.03
2018-03-09T10:43:19.356Z,18.42
2018-03-09T10:45:54.876Z,31.30
2018-03-09T10:48:29.991Z,25.03
2018-03-09T10:51:05.164Z,18.57
2018-03-09T10:53:39.988Z,30.27
2018-03-09T10:56:15.167Z,19.10
2018-03-09T10:58:49.971Z,24.67
2018-03-09T11:01:25.182Z,32.40
2018-03-09T11:04:00.027Z,26.90
2018-03-09T11:06:35.002Z,27.43
2018-03-09T11:09:10.276Z,31.50
2018-03-09T11:11:44.980Z,25.93
2018-03-09T11:14:20.201Z,20.23
2018-03-09T11:16:54.955Z,25.87
2018-03-09T11:19:30.015Z,29.03
2018-03-09T11:22:05.092Z,22.70
2018-03-09T11:24:40.135Z,26.57
2018-03-09T11:27:15.347Z,27.00
2018-03-09T11:29:50.284Z,22.70
2018-03-09T11:32:25.336Z,25.20
2018-03-09T11:35:01.354Z,26.33
2018-03-09T11:37:36.090Z,32.27
2018-03-09T11:40:11.229Z,23.30
2018-03-09T11:42:46.259Z,29.63
2018-03-09T11:45:21.506Z,28.53
2018-03-09T11:47:56.479Z,16.70
2018-03-09T11:50:31.880Z,25.55
2018-03-09T11:53:07.019Z,23.17
2018-03-09T11:55:42.008Z,35.57
2018-03-09T11:58:17.297Z,28.02
2018-03-09T12:00:52.142Z,28.23
2018-03-09T12:03:26.991Z,24.37
2018-03-09T12:06:02.050Z,25.30
2018-03-09T12:08:37.105Z,20.90
2018-03-09T12:11:12.003Z,21.87
2018-03-09T12:13:47.065Z,24.10
2018-03-09T12:16:22.407Z,22.13
2018-03-09T12:18:57.691Z,25.70
2018-03-09T12:21:33.022Z,22.10
2018-03-09T12:24:08.043Z,21.92
2018-03-09T12:26:43.055Z,20.08
2018-03-09T12:29:18.071Z,13.03
2018-03-09T12:31:53.113Z,15.60
2018-03-09T12:34:29.007Z,16.07
2018-03-09T12:37:04.266Z,18.23
2018-03-09T12:39:39.472Z,17.00
2018-03-09T12:42:14.498Z,15.70
2018-03-09T12:44:49.548Z,12.17
2018-03-09T12:47:25.174Z,16.35
2018-03-09T12:50:00.175Z,17.40
2018-03-09T12:52:35.163Z,16.33
2018-03-09T12:55:10.686Z,18.70
2018-03-09T12:57:45.709Z,17.80
2018-03-09T13:00:20.415Z,16.15
2018-03-09T13:02:55.268Z,19.67
2018-03-09T13:05:30.235Z,18.77
2018-03-09T13:08:05.229Z,17.33
2018-03-09T13:10:40.015Z,17.00
2018-03-09T13:13:17.215Z,20.80
2018-03-09T13:15:53.760Z,15.70
2018-03-09T13:18:33.805Z,18.47
2018-03-09T13:21:09.620Z,19.17
2018-03-09T13:23:44.511Z,18.23
2018-03-09T13:26:19.651Z,19.70
2018-03-09T13:28:54.596Z,17.27
2018-03-09T13:31:29.630Z,16.23
2018-03-09T13:34:04.451Z,16.13
2018-03-09T13:36:39.413Z,18.20
2018-03-09T13:39:14.451Z,18.27
2018-03-09T13:41:49.587Z,15.50
2018-03-09T13:44:24.645Z,19.30
2018-03-09T13:46:59.875Z,19.65
2018-03-09T13:49:35.203Z,13.80
2018-03-09T13:52:10.652Z,20.97
2018-03-09T13:54:46.195Z,18.95
2018-03-09T13:57:21.439Z,18.80
2018-03-09T13:59:56.524Z,18.37
2018-03-09T14:02:31.672Z,18.07
2018-03-09T14:05:07.262Z,15.63
2018-03-09T14:07:42.239Z,14.90
2018-03-09T14:10:17.515Z,13.80
2018-03-09T14:12:52.466Z,15.50
2018-03-09T14:15:26.804Z,13.10
2018-03-09T14:18:01.777Z,17.30
2018-03-09T14:20:36.955Z,14.33
2018-03-09T14:23:11.792Z,15.30
2018-03-09T14:25:47.279Z,15.07
2018-03-09T14:28:22.523Z,13.43
2018-03-09T14:30:57.433Z,19.63
2018-03-09T14:33:32.030Z,15.15
2018-03-09T14:36:07.502Z,14.77
2018-03-09T14:38:42.367Z,14.43
2018-03-09T14:41:17.406Z,14.73
2018-03-09T14:43:52.356Z,13.43
2018-03-09T14:46:27.603Z,19.40
2018-03-09T14:49:02.492Z,14.03
2018-03-09T14:51:37.459Z,13.83
2018-03-09T14:54:12.659Z,15.20
2018-03-09T14:56:47.716Z,14.80
2018-03-09T14:59:23.272Z,16.15
2018-03-09T15:01:58.386Z,14.50
2018-03-09T15:04:33.630Z,15.00
2018-03-09T15:07:09.707Z,17.55
2018-03-09T15:09:44.486Z,13.40
2018-03-09T15:12:19.695Z,16.07
2018-03-09T15:14:54.857Z,15.60
2018-03-09T15:17:29.807Z,14.57
2018-03-09T15:20:04.435Z,15.60
2018-03-09T15:22:39.707Z,16.67
2018-03-09T15:25:15.070Z,14.27
2018-03-09T15:27:50.035Z,18.53
2018-03-09T15:30:24.810Z,17.63
2018-03-09T15:32:59.664Z,16.40
2018-03-09T15:35:34.554Z,17.07
2018-03-09T15:38:09.374Z,16.47
2018-03-09T15:40:44.635Z,16.00
2018-03-09T15:43:19.959Z,14.65
2018-03-09T15:45:54.836Z,12.43
2018-03-09T15:48:29.470Z,16.35
2018-03-09T15:51:04.228Z,15.13
2018-03-09T15:53:39.503Z,16.97
2018-03-09T15:56:14.772Z,17.20
2018-03-09T15:58:50.019Z,16.00
2018-03-09T16:01:25.050Z,18.90
2018-03-09T16:04:00.529Z,14.75
2018-03-09T16:06:35.632Z,18.30
2018-03-09T16:09:10.948Z,14.63
2018-03-09T16:11:47.596Z,16.17
2018-03-09T16:14:22.868Z,14.30
2018-03-09T16:16:57.589Z,16.70
2018-03-09T16:19:32.663Z,13.57
2018-03-09T16:22:07.020Z,17.57
2018-03-09T16:24:41.668Z,16.20
2018-03-09T16:27:16.833Z,15.63
2018-03-09T16:29:51.897Z,14.70
2018-03-09T16:32:27.158Z,16.57
2018-03-09T16:35:02.621Z,15.57
2018-03-09T16:37:37.883Z,17.63
2018-03-09T16:40:13.010Z,15.10
2018-03-09T16:42:47.882Z,20.10
2018-03-09T16:45:22.683Z,14.63
2018-03-09T16:47:57.687Z,15.10
2018-03-09T16:50:32.811Z,14.53
2018-03-09T16:53:07.874Z,14.23
2018-03-09T16:55:43.474Z,14.83
2018-03-09T16:58:18.947Z,18.97
2018-03-09T17:00:53.765Z,15.23
2018-03-09T17:03:28.814Z,15.53
2018-03-09T17:06:03.861Z,14.40
2018-03-09T17:08:38.731Z,21.10
2018-03-09T17:11:14.043Z,17.40
2018-03-09T17:13:48.979Z,15.30
2018-03-09T17:16:24.438Z,17.92
2018-03-09T17:18:59.328Z,16.50
2018-03-09T17:21:34.670Z,19.00
2018-03-09T17:24:10.149Z,18.63
2018-03-09T17:26:45.459Z,18.30
2018-03-09T17:29:20.795Z,16.35
2018-03-09T17:31:55.850Z,16.53
2018-03-09T17:34:30.883Z,19.43
2018-03-09T17:37:04.819Z,25.63
2018-03-09T17:39:39.856Z,18.77
2018-03-09T17:42:15.310Z,16.33
2018-03-09T17:44:50.106Z,19.77
2018-03-09T17:47:25.010Z,20.50
2018-03-09T17:50:00.316Z,19.57
2018-03-09T17:52:35.230Z,23.00
2018-03-09T17:55:10.163Z,23.17
2018-03-09T17:57:45.212Z,21.13
2018-03-09T18:00:20.891Z,22.00
2018-03-09T18:02:55.760Z,23.35
2018-03-09T18:05:30.295Z,22.10
2018-03-09T18:08:05.128Z,23.60
2018-03-09T18:10:40.338Z,21.83
2018-03-09T18:13:15.550Z,18.60
2018-03-09T18:15:50.431Z,19.77
2018-03-09T18:18:25.898Z,26.00
2018-03-09T18:21:00.908Z,19.43
2018-03-09T18:23:48.508Z,22.37
2018-03-09T18:26:23.425Z,19.27
2018-03-09T18:28:58.160Z,22.00
2018-03-09T18:31:33.211Z,20.93
2018-03-09T18:34:08.064Z,18.60
2018-03-09T18:36:42.976Z,22.10
2018-03-09T18:39:18.198Z,16.93
2018-03-09T18:41:53.291Z,24.73
2018-03-09T18:44:28.218Z,21.63
2018-03-09T18:47:03.114Z,19.27
2018-03-09T18:49:38.409Z,24.90
2018-03-09T18:52:14.157Z,26.70
2018-03-09T18:54:49.014Z,30.80
2018-03-09T18:57:24.406Z,31.00
2018-03-09T19:00:00.059Z,23.97
2018-03-09T19:02:34.987Z,21.20
2018-03-09T19:05:10.375Z,26.00
2018-03-09T19:07:44.950Z,21.40
2018-03-09T19:10:20.182Z,26.62
2018-03-09T19:12:55.090Z,22.90
2018-03-09T19:15:30.070Z,20.97
2018-03-09T19:18:04.696Z,23.40
2018-03-09T19:20:39.031Z,20.67
2018-03-09T19:23:14.211Z,26.20
2018-03-09T19:25:49.236Z,24.77
2018-03-09T19:28:24.364Z,22.20
2018-03-09T19:30:59.235Z,24.63
2018-03-09T19:33:34.275Z,23.67
2018-03-09T19:36:10.411Z,23.73
2018-03-09T19:38:44.830Z,25.43
2018-03-09T19:41:20.091Z,25.20
2018-03-09T19:43:55.118Z,28.93
2018-03-09T19:46:30.325Z,26.30
2018-03-09T19:49:04.563Z,23.90
2018-03-09T19:51:39.281Z,26.53
2018-03-09T19:54:14.499Z,36.50
2018-03-09T19:56:49.987Z,24.20
2018-03-09T19:59:25.033Z,25.70
2018-03-09T20:02:00.106Z,27.90
2018-03-09T20:04:34.854Z,29.57
2018-03-09T20:07:10.395Z,27.50
2018-03-09T20:09:45.655Z,26.10
2018-03-09T20:12:20.337Z,23.70
2018-03-09T20:14:55.563Z,29.33
2018-03-09T20:17:30.555Z,25.62
2018-03-09T20:20:05.347Z,30.60
2018-03-09T20:22:40.400Z,26.57
2018-03-09T20:25:16.226Z,23.33
2018-03-09T20:27:50.596Z,27.53
2018-03-09T20:30:26.023Z,29.90
2018-03-09T20:33:01.344Z,31.40
2018-03-09T20:35:36.015Z,28.55
2018-03-09T20:38:11.104Z,28.92
2018-03-09T20:40:46.150Z,32.97
2018-03-09T20:43:21.400Z,30.07
2018-03-09T20:45:56.383Z,35.00
2018-03-09T20:48:31.384Z,28.83
2018-03-09T20:51:08.947Z,26.30
2018-03-09T20:53:43.244Z,34.00
2018-03-09T20:56:18.523Z,29.23
2018-03-09T20:58:53.188Z,28.77
2018-03-09T21:01:28.154Z,32.47
2018-03-09T21:04:03.304Z,30.30
2018-03-09T21:06:38.274Z,29.67
2018-03-09T21:09:13.571Z,26.13
2018-03-09T21:11:48.627Z,27.33
2018-03-09T21:14:23.699Z,29.27
2018-03-09T21:16:58.263Z,30.37
2018-03-09T21:19:33.276Z,32.90
2018-03-09T21:22:08.740Z,28.63
2018-03-09T21:24:44.198Z,29.40
2018-03-09T21:27:18.792Z,30.25
2018-03-09T21:29:53.276Z,66.83
2018-03-09T21:32:28.412Z,33.05
2018-03-09T21:35:03.255Z,28.23
2018-03-09T21:37:38.398Z,32.53
2018-03-09T21:40:13.531Z,31.93
2018-03-09T21:42:48.361Z,33.17
2018-03-09T21:45:23.550Z,40.50
2018-03-09T21:47:58.384Z,30.43
2018-03-09T21:50:33.318Z,31.27
2018-03-09T21:53:08.567Z,29.37
2018-03-09T21:55:43.598Z,32.10
2018-03-09T21:58:18.562Z,33.42
2018-03-09T22:00:53.270Z,29.27
2018-03-09T22:03:27.606Z,34.00
2018-03-09T22:06:02.342Z,34.07
2018-03-09T22:08:36.684Z,36.63
2018-03-09T22:11:12.239Z,29.35
2018-03-09T22:13:47.336Z,35.90
2018-03-09T22:16:22.279Z,30.70
2018-03-09T22:18:57.572Z,30.83
2018-03-09T22:21:32.447Z,33.70
2018-03-09T22:24:07.411Z,31.87
2018-03-09T22:26:42.451Z,33.13
2018-03-09T22:29:16.784Z,33.03
2018-03-09T22:31:52.216Z,30.85
2018-03-09T22:34:26.850Z,31.63
2018-03-09T22:37:01.916Z,29.20
2018-03-09T22:39:36.743Z,30.07
2018-03-09T22:42:11.194Z,33.87
2018-03-09T22:44:46.315Z,26.33
2018-03-09T22:47:21.898Z,32.60
2018-03-09T22:49:56.548Z,28.00
2018-03-09T22:52:31.806Z,32.87
2018-03-09T22:55:06.434Z,31.83
2018-03-09T22:57:41.575Z,28.53
2018-03-09T23:00:16.699Z,31.13
2018-03-09T23:02:51.847Z,25.43
2018-03-09T23:05:26.878Z,27.77
2018-03-09T23:08:01.745Z,27.27
2018-03-09T23:10:36.896Z,26.27
2018-03-09T23:13:12.718Z,26.10
2018-03-09T23:15:47.544Z,26.13
2018-03-09T23:18:22.034Z,25.80
2018-03-09T23:20:57.522Z,24.90
2018-03-09T23:23:32.511Z,23.70
2018-03-09T23:26:07.552Z,26.70
2018-03-09T23:28:41.899Z,28.70
2018-03-09T23:31:16.967Z,23.20
2018-03-09T23:33:51.811Z,21.40
2018-03-09T23:36:26.547Z,21.92
2018-03-09T23:39:01.777Z,20.10
2018-03-09T23:41:36.834Z,23.23
2018-03-09T23:44:11.695Z,24.90
2018-03-09T23:46:46.617Z,28.57
2018-03-09T23:49:22.054Z,21.50
2018-03-09T23:51:56.692Z,26.33
2018-03-09T23:54:31.643Z,19.87
2018-03-09T23:57:06.638Z,19.17
2018-03-09T23:59:42.123Z,20.77
